Grinnell, Kansas
Current Conditions -  °F | °C
As of 5:15 AM on Saturday 22 Nov 2014 (Local Time) from KCBK Reporting Station
Clear Clear  
Wind Chill: 20°   Ceiling: Unl
Heat Index: 28°   Visibility: 10mi
Dew Point: 23°   Wind: 8mph
Humidity: 80%   Direction: 260°W
Pressure: 29.88"   Gusts: NA
Location:  39.13°N, 100.63°W
Report Text: KCBK 221115Z AUTO 26007KT 10SM CLR M02/M05 A2988 RMK AO2
Loading
Personal Weather Stations






























Interactive Weather Map New forecast layout! Learn more

10-Day Weather Forecast

Advertisements
Track Severe Weather on mobile